Terminal Aerodrome Forecast
Issued by NWS

Current Version | Previous Version | Text Only | Print | Product List | Glossary On
Versions: 1 2 3 4 5 6 7 8 9 10 11 12 13 14 15 16 17 18 19 20 21 22
000
FTUS41 KGYX 012320
TAFRKD
TAF
KRKD 012320Z 0200/0224 04008G16KT P6SM OVC020
     FM020300 05010G16KT 4SM -DZ BR SCT003 OVC007
     FM020600 05010G16KT 1/2SM -DZ FG OVC001
     FM021000 05010G16KT 3SM BR OVC003
     FM021300 05011G17KT P6SM OVC025
     FM021400 04009KT P6SM BKN120
      AMD LTD TO CLD VIS AND WIND=

USA.gov is the U.S. government's official web portal to all federal, state and local government web resources and services.